createdAt,value
2019-01-19T00:05:15.139Z,79.90
2019-01-19T00:11:09.459Z,80.00
2019-01-19T00:16:40.058Z,80.10
2019-01-19T00:22:07.976Z,80.20
2019-01-19T00:27:26.873Z,80.40
2019-01-19T00:32:53.877Z,80.50
2019-01-19T00:38:28.149Z,80.50
2019-01-19T00:43:53.622Z,80.40
2019-01-19T00:49:23.897Z,80.30
2019-01-19T00:54:41.145Z,80.50
2019-01-19T00:59:49.182Z,80.50
2019-01-19T01:05:10.666Z,80.60
2019-01-19T01:10:54.416Z,80.70
2019-01-19T01:16:49.222Z,80.60
2019-01-19T01:22:09.967Z,80.70
2019-01-19T01:27:42.034Z,80.80
2019-01-19T01:33:24.519Z,81.00
2019-01-19T01:39:08.393Z,80.80
2019-01-19T01:44:27.186Z,80.90
2019-01-19T01:50:03.366Z,81.00
2019-01-19T01:55:18.668Z,81.10
2019-01-19T02:00:42.588Z,80.90
2019-01-19T02:06:33.944Z,80.80
2019-01-19T02:11:59.862Z,80.90
2019-01-19T02:17:44.218Z,80.70
2019-01-19T02:23:31.360Z,80.70
2019-01-19T02:28:59.841Z,80.60
2019-01-19T02:34:40.669Z,80.60
2019-01-19T02:40:16.053Z,80.60
2019-01-19T02:46:07.506Z,80.70
2019-01-19T02:51:52.375Z,80.70
2019-01-19T02:57:24.396Z,80.80
2019-01-19T03:03:05.744Z,80.70
2019-01-19T03:08:58.796Z,80.70
2019-01-19T03:14:47.863Z,80.80
2019-01-19T03:20:20.809Z,80.80
2019-01-19T03:25:58.999Z,80.60
2019-01-19T03:31:50.164Z,80.60
2019-01-19T03:37:37.333Z,80.60
2019-01-19T03:43:15.382Z,80.70
2019-01-19T03:48:27.046Z,80.90
2019-01-19T03:54:24.308Z,80.80
2019-01-19T04:00:24.495Z,81.00
2019-01-19T04:05:54.185Z,81.00
2019-01-19T04:11:42.679Z,81.20
2019-01-19T04:17:37.136Z,81.30
2019-01-19T04:22:47.815Z,81.50
2019-01-19T04:27:52.414Z,81.60
2019-01-19T04:32:56.936Z,82.10
2019-01-19T04:38:01.530Z,81.80
2019-01-19T04:43:06.117Z,81.90
2019-01-19T04:48:10.633Z,82.20
2019-01-19T04:53:15.133Z,82.40
2019-01-19T04:58:19.744Z,82.20
2019-01-19T05:03:24.315Z,82.60
2019-01-19T05:08:28.874Z,82.70
2019-01-19T05:13:33.343Z,82.50
2019-01-19T05:18:37.872Z,82.50
2019-01-19T05:23:42.828Z,82.50
2019-01-19T05:28:47.364Z,82.70
2019-01-19T05:33:51.959Z,82.70
2019-01-19T05:38:56.523Z,83.70
2019-01-19T05:44:01.044Z,83.00
2019-01-19T05:49:05.728Z,82.90
2019-01-19T05:54:10.333Z,82.80
2019-01-19T05:59:14.890Z,82.90
2019-01-19T06:04:19.389Z,83.00
2019-01-19T06:09:23.951Z,83.00
2019-01-19T06:14:28.442Z,83.10
2019-01-19T06:19:33.156Z,83.50
2019-01-19T06:24:37.652Z,83.60
2019-01-19T06:29:42.288Z,83.40
2019-01-19T06:34:46.844Z,84.20
2019-01-19T06:39:51.343Z,84.10
2019-01-19T06:44:55.859Z,84.20
2019-01-19T06:50:00.406Z,84.70
2019-01-19T06:55:05.246Z,84.50
2019-01-19T07:00:12.185Z,84.40
2019-01-19T07:05:16.739Z,84.50
2019-01-19T07:10:22.612Z,84.50
2019-01-19T07:15:27.117Z,85.80
2019-01-19T07:20:31.808Z,86.20
2019-01-19T07:25:36.525Z,85.90
2019-01-19T07:30:41.127Z,85.90
2019-01-19T07:35:45.620Z,86.00
2019-01-19T07:40:50.167Z,85.80
2019-01-19T07:45:54.733Z,85.50
2019-01-19T07:50:59.261Z,87.00
2019-01-19T07:56:03.851Z,86.70
2019-01-19T08:01:08.464Z,86.60
2019-01-19T08:06:13.053Z,87.90
2019-01-19T08:11:17.677Z,87.80
2019-01-19T08:16:22.254Z,87.50
2019-01-19T08:21:26.832Z,87.90
2019-01-19T08:26:31.460Z,87.10
2019-01-19T08:31:35.964Z,87.40
2019-01-19T08:36:40.648Z,87.40
2019-01-19T08:41:45.160Z,88.30
2019-01-19T08:46:49.674Z,89.50
2019-01-19T08:51:54.235Z,88.90
2019-01-19T08:56:58.816Z,88.30
2019-01-19T09:02:03.421Z,88.20
2019-01-19T09:07:08.000Z,88.00
2019-01-19T09:12:12.575Z,87.90
2019-01-19T09:17:17.147Z,88.20
2019-01-19T09:22:21.680Z,87.90
2019-01-19T09:27:26.243Z,87.80
2019-01-19T09:32:31.095Z,87.30
2019-01-19T09:37:40.807Z,87.70
2019-01-19T09:42:41.949Z,87.80
2019-01-19T09:47:46.456Z,87.70
2019-01-19T09:52:51.170Z,87.50
2019-01-19T09:57:55.771Z,87.20
2019-01-19T10:03:00.464Z,87.40
2019-01-19T10:08:05.173Z,87.70
2019-01-19T10:13:09.760Z,87.60
2019-01-19T10:18:14.325Z,87.20
2019-01-19T10:23:18.936Z,87.60
2019-01-19T10:28:23.525Z,87.40
2019-01-19T10:33:28.135Z,87.00
2019-01-19T10:38:32.709Z,87.20
2019-01-19T10:43:37.214Z,87.20
2019-01-19T10:48:41.810Z,87.30
2019-01-19T10:53:46.359Z,87.20
2019-01-19T10:58:50.961Z,86.90
2019-01-19T11:03:55.558Z,86.70
2019-01-19T11:09:00.266Z,86.80
2019-01-19T11:14:04.846Z,86.90
2019-01-19T11:19:09.384Z,87.00
2019-01-19T11:24:14.006Z,87.30
2019-01-19T11:29:18.553Z,86.90
2019-01-19T11:34:23.122Z,87.40
2019-01-19T11:39:27.724Z,87.30
2019-01-19T11:44:32.309Z,86.90
2019-01-19T11:49:36.943Z,86.70
2019-01-19T11:54:41.761Z,86.60
2019-01-19T11:59:46.341Z,86.60
2019-01-19T12:04:50.965Z,86.70
2019-01-19T12:09:55.564Z,87.50
2019-01-19T12:15:00.258Z,87.40
2019-01-19T12:20:07.145Z,88.00
2019-01-19T12:25:13.385Z,87.70
2019-01-19T12:30:20.155Z,88.10
2019-01-19T12:35:24.798Z,87.90
2019-01-19T12:40:29.739Z,87.80
2019-01-19T12:45:37.912Z,88.30
2019-01-19T12:50:42.576Z,88.10
2019-01-19T12:55:47.432Z,88.50
2019-01-19T13:00:52.004Z,88.70
2019-01-19T13:06:38.591Z,88.60
2019-01-19T13:12:19.202Z,89.30
2019-01-19T13:18:03.250Z,89.10
2019-01-19T13:23:28.710Z,89.00
2019-01-19T13:29:11.415Z,89.70
2019-01-19T13:34:55.873Z,90.00
2019-01-19T13:40:50.296Z,89.70
2019-01-19T13:46:15.848Z,89.80
2019-01-19T13:51:47.760Z,90.00
2019-01-19T13:57:44.365Z,90.10
2019-01-19T14:03:25.727Z,90.10
2019-01-19T14:09:22.818Z,90.00
2019-01-19T14:14:47.785Z,90.20
2019-01-19T14:20:19.326Z,90.10
2019-01-19T14:26:02.346Z,90.30
2019-01-19T14:31:53.821Z,90.10
2019-01-19T14:37:36.196Z,90.60
2019-01-19T14:43:09.890Z,90.30
2019-01-19T14:48:39.993Z,90.20
2019-01-19T14:54:23.271Z,90.20
2019-01-19T14:59:47.477Z,90.30
2019-01-19T15:04:56.715Z,90.40
2019-01-19T15:10:19.318Z,90.50
2019-01-19T15:15:50.208Z,90.60
2019-01-19T15:21:16.773Z,90.50
2019-01-19T15:27:06.695Z,90.70
2019-01-19T15:32:52.404Z,90.50
2019-01-19T15:38:19.353Z,90.50
2019-01-19T15:44:00.621Z,90.40
2019-01-19T15:49:26.082Z,90.50
2019-01-19T15:55:07.138Z,90.80
2019-01-19T16:00:48.630Z,91.30
2019-01-19T16:06:34.481Z,91.50
2019-01-19T16:12:21.906Z,91.50
2019-01-19T16:18:08.608Z,91.40
2019-01-19T16:23:31.549Z,91.20
2019-01-19T16:29:03.199Z,91.10
2019-01-19T16:34:27.123Z,91.00
2019-01-19T16:40:00.302Z,90.80
2019-01-19T16:45:37.695Z,90.70
2019-01-19T16:51:19.009Z,90.70
2019-01-19T16:57:15.201Z,90.70
2019-01-19T17:03:00.246Z,90.60
2019-01-19T17:08:39.293Z,90.50
2019-01-19T17:14:27.748Z,90.50
2019-01-19T17:20:16.976Z,90.40
2019-01-19T17:26:04.065Z,90.50
2019-01-19T17:31:32.230Z,90.40
2019-01-19T17:36:48.488Z,90.40
2019-01-19T17:42:30.491Z,90.30
2019-01-19T17:48:02.837Z,90.20
2019-01-19T17:54:00.087Z,90.30
2019-01-19T17:59:45.077Z,90.20
2019-01-19T18:05:30.201Z,90.50
2019-01-19T18:10:58.705Z,90.40
2019-01-19T18:16:57.657Z,90.30
2019-01-19T18:23:01.348Z,90.20
2019-01-19T18:28:28.237Z,90.10
2019-01-19T18:34:22.359Z,90.00
2019-01-19T18:40:04.804Z,90.60
2019-01-19T18:45:49.434Z,90.00
2019-01-19T18:51:26.844Z,89.90
2019-01-19T18:57:24.054Z,89.70
2019-01-19T19:03:05.232Z,89.60
2019-01-19T19:08:35.387Z,89.50
2019-01-19T19:14:17.365Z,89.50
2019-01-19T19:20:01.185Z,89.20
2019-01-19T19:25:50.099Z,89.20
2019-01-19T19:31:17.397Z,89.10
2019-01-19T19:36:48.668Z,88.80
2019-01-19T19:42:38.427Z,88.90
2019-01-19T19:48:28.688Z,88.40
2019-01-19T19:53:33.301Z,88.50
2019-01-19T19:58:37.982Z,88.20
2019-01-19T20:03:42.642Z,88.20
2019-01-19T20:08:47.363Z,88.00
2019-01-19T20:13:52.054Z,88.00
2019-01-19T20:18:56.699Z,87.80
2019-01-19T20:24:01.436Z,87.80
2019-01-19T20:29:06.210Z,87.80
2019-01-19T20:34:10.814Z,87.70
2019-01-19T20:39:15.412Z,87.50
2019-01-19T20:44:20.099Z,87.40
2019-01-19T20:49:24.751Z,87.20
2019-01-19T20:54:29.373Z,86.80
2019-01-19T20:59:33.970Z,86.80
2019-01-19T21:04:38.625Z,86.70
2019-01-19T21:09:43.249Z,86.40
2019-01-19T21:14:47.805Z,86.30
2019-01-19T21:19:52.404Z,86.30
2019-01-19T21:24:56.968Z,86.20
2019-01-19T21:30:01.524Z,86.30
2019-01-19T21:35:07.659Z,86.30
2019-01-19T21:40:12.609Z,86.20
2019-01-19T21:45:18.979Z,86.30
2019-01-19T21:50:23.632Z,86.20
2019-01-19T21:55:28.239Z,86.20
2019-01-19T22:00:32.830Z,86.00
2019-01-19T22:05:37.456Z,86.10
2019-01-19T22:10:46.245Z,86.10
2019-01-19T22:15:48.642Z,86.00
2019-01-19T22:20:53.302Z,85.90
2019-01-19T22:25:57.933Z,86.10
2019-01-19T22:31:02.524Z,86.20
2019-01-19T22:36:07.482Z,86.40
2019-01-19T22:41:12.787Z,86.30
2019-01-19T22:46:17.411Z,86.40
2019-01-19T22:51:21.951Z,86.40
2019-01-19T22:56:26.508Z,86.50
2019-01-19T23:01:52.652Z,86.70
2019-01-19T23:06:57.267Z,86.90
2019-01-19T23:12:01.903Z,87.10
2019-01-19T23:17:06.732Z,87.20
2019-01-19T23:22:11.391Z,86.80
2019-01-19T23:27:15.982Z,86.20
2019-01-19T23:32:20.557Z,86.60
2019-01-19T23:37:25.208Z,86.70
2019-01-19T23:42:29.825Z,86.70
2019-01-19T23:47:34.455Z,86.70
2019-01-19T23:52:39.090Z,87.40
2019-01-19T23:57:43.697Z,86.80
